Time;durP1;ratioP1;P1;durP2;ratioP2;P2;SDS_P1;SDS_P2;PMS_P1;PMS_P2;Temp;Humidity;BMP_temperature;BMP_pressure;BME280_temperature;BME280_humidity;BME280_pressure;Samples;Min_cycle;Max_cycle;Signal;HPM_P1;HPM_P2
2022/12/16 00:02:02;;;;;;;59.58;51.10;;;;;;;-6.20;100.00;101017.47;5124361;29;20110;-64
2022/12/16 00:04:32;;;;;;;56.42;50.75;;;;;;;-6.17;100.00;101028.53;5124902;28;20022;-64
2022/12/16 00:07:02;;;;;;;54.38;49.30;;;;;;;-6.08;100.00;101026.84;5124810;29;20050;-64
2022/12/16 00:09:33;;;;;;;50.70;45.95;;;;;;;-6.09;100.00;101016.47;5124334;29;20027;-64
2022/12/16 00:12:04;;;;;;;56.78;47.50;;;;;;;-5.97;100.00;101021.38;5124707;29;20420;-64
2022/12/16 00:14:34;;;;;;;51.70;47.03;;;;;;;-5.83;100.00;101036.66;5124365;28;20118;-61
2022/12/16 00:17:04;;;;;;;58.03;52.15;;;;;;;-5.96;100.00;101002.00;5125313;28;20087;-64
2022/12/16 00:19:35;;;;;;;56.55;51.08;;;;;;;-5.89;100.00;101000.44;5124573;29;20027;-64
2022/12/16 00:22:06;;;;;;;51.22;46.17;;;;;;;-5.71;100.00;101018.88;5124174;29;20046;-64
2022/12/16 00:24:36;;;;;;;51.40;46.20;;;;;;;-5.61;100.00;101024.91;5124928;28;20027;-64
2022/12/16 00:27:07;;;;;;;50.88;46.28;;;;;;;-5.54;100.00;101012.00;5125025;28;20038;-63
2022/12/16 00:29:37;;;;;;;48.65;44.05;;;;;;;-5.58;100.00;101011.47;5124456;29;20070;-64
2022/12/16 00:32:07;;;;;;;52.03;47.15;;;;;;;-5.50;100.00;101022.09;5124964;29;20027;-64
2022/12/16 00:34:38;;;;;;;59.38;50.72;;;;;;;-5.43;100.00;101023.13;5107624;28;20074;-64
2022/12/16 00:37:10;;;;;;;53.28;48.58;;;;;;;-5.33;100.00;101027.50;5125317;29;20031;-64
2022/12/16 00:39:41;;;;;;;55.40;49.70;;;;;;;-5.25;100.00;101023.16;5125415;28;20023;-64
2022/12/16 00:42:11;;;;;;;49.50;44.90;;;;;;;-5.14;100.00;101027.34;5107424;29;20027;-64
2022/12/16 00:44:41;;;;;;;50.45;45.42;;;;;;;-5.04;100.00;101027.28;5125444;28;20062;-64
2022/12/16 00:47:12;;;;;;;51.88;46.72;;;;;;;-4.94;100.00;101026.25;5125522;28;20023;-62
2022/12/16 00:49:42;;;;;;;51.72;46.35;;;;;;;-5.12;100.00;100978.00;5108679;29;20078;-64
2022/12/16 00:52:12;;;;;;;54.15;48.60;;;;;;;-4.78;100.00;101023.72;5125540;29;20511;-64
2022/12/16 00:54:43;;;;;;;57.83;52.08;;;;;;;-4.70;100.00;101030.06;5126153;28;20058;-64
2022/12/16 00:57:13;;;;;;;52.67;47.67;;;;;;;-4.72;100.00;101019.66;5126534;29;20058;-64
2022/12/16 00:59:43;;;;;;;55.28;50.20;;;;;;;-4.57;100.00;101026.03;5126232;29;20491;-64
2022/12/16 01:02:14;;;;;;;49.80;44.42;;;;;;;-4.50;100.00;101036.78;5126652;28;20035;-64
2022/12/16 01:04:44;;;;;;;54.65;49.10;;;;;;;-4.43;100.00;101032.56;5130544;28;20030;-64
2022/12/16 01:07:15;;;;;;;52.80;47.30;;;;;;;-4.52;100.00;101007.94;5131725;29;20027;-63
2022/12/16 01:09:45;;;;;;;53.22;47.70;;;;;;;-4.26;100.00;101038.75;5114609;29;20044;-64
2022/12/16 01:12:16;;;;;;;48.25;43.60;;;;;;;-4.19;100.00;101035.34;5132042;29;20082;-64
2022/12/16 01:14:46;;;;;;;53.38;47.88;;;;;;;-4.12;100.00;101044.28;5132401;28;20412;-64
2022/12/16 01:17:16;;;;;;;52.20;47.05;;;;;;;-4.06;100.00;101039.38;5132593;28;20031;-65
2022/12/16 01:19:47;;;;;;;50.25;45.85;;;;;;;-4.17;100.00;101022.81;5135022;29;20027;-65
2022/12/16 01:22:18;;;;;;;58.47;53.03;;;;;;;-4.00;100.00;101046.63;5115188;29;20053;-63
2022/12/16 01:24:49;;;;;;;49.30;44.53;;;;;;;-3.97;100.00;101054.25;5122050;28;20138;-64
2022/12/16 01:27:19;;;;;;;47.47;42.95;;;;;;;-3.94;100.00;101056.56;5118504;29;20462;-64
2022/12/16 01:29:49;;;;;;;50.45;45.60;;;;;;;-4.07;100.00;101027.16;5133721;29;20070;-64
2022/12/16 01:32:20;;;;;;;48.90;44.20;;;;;;;-3.85;100.00;101053.81;5133290;29;20109;-62
2022/12/16 01:34:52;;;;;;;51.05;46.50;;;;;;;-3.80;100.00;101048.06;5119454;29;20090;-64
2022/12/16 01:37:23;;;;;;;49.17;44.42;;;;;;;-3.77;100.00;101068.88;5138794;23;20075;-64
2022/12/16 01:39:54;;;;;;;46.90;42.47;;;;;;;-3.75;100.00;101072.16;5141626;28;20390;-63
2022/12/16 01:42:29;;;;;;;52.83;47.42;;;;;;;-3.69;100.00;101068.06;5137147;28;20027;-64
2022/12/16 01:45:21;;;;;;;49.53;44.17;;;;;;;-3.65;100.00;101075.50;5128710;29;20027;-65
2022/12/16 01:47:56;;;;;;;49.85;45.25;;;;;;;-3.71;100.00;101068.22;5109112;29;20084;-65
2022/12/16 01:50:27;;;;;;;49.45;45.00;;;;;;;-3.59;100.00;101090.72;5109153;29;20095;-64
2022/12/16 01:53:02;;;;;;;50.53;44.38;;;;;;;-3.53;100.00;101092.72;5108436;29;20070;-64
2022/12/16 01:55:42;;;;;;;46.13;41.35;;;;;;;-3.53;100.00;101089.25;5112789;29;20069;-64
2022/12/16 01:58:22;;;;;;;47.85;43.67;;;;;;;-3.46;100.00;101108.72;5128795;29;20021;-64
2022/12/16 02:00:52;;;;;;;50.80;45.50;;;;;;;-3.44;100.00;101099.66;5114169;29;20075;-65
2022/12/16 02:03:23;;;;;;;49.45;44.53;;;;;;;-3.41;100.00;101101.16;5110605;29;20492;-64
2022/12/16 02:05:54;;;;;;;47.35;42.72;;;;;;;-3.38;100.00;101102.66;5120877;29;20023;-64
2022/12/16 02:08:25;;;;;;;45.78;41.78;;;;;;;-3.42;100.00;101097.69;5118743;29;20098;-64
2022/12/16 02:11:20;;;;;;;42.72;38.72;;;;;;;-3.33;100.00;101110.94;5096159;29;20110;-64
2022/12/16 02:14:28;;;;;;;53.15;47.53;;;;;;;-3.29;100.00;101101.72;5106965;29;20384;-64
2022/12/16 02:17:20;;;;;;;46.72;42.08;;;;;;;-3.30;100.00;101100.06;5107702;29;20051;-64
2022/12/16 02:20:11;;;;;;;47.85;42.78;;;;;;;-3.24;100.00;101102.91;5108252;29;20016;-64
2022/12/16 02:22:57;;;;;;;43.42;39.50;;;;;;;-3.19;100.00;101108.53;5108194;29;20082;-63
2022/12/16 02:26:04;;;;;;;44.50;40.38;;;;;;;-3.13;100.00;101114.97;5152098;23;20047;-86
2022/12/16 02:29:34;;;;;;;44.22;40.15;;;;;;;-3.27;100.00;101081.25;5123957;29;20050;-86
2022/12/16 02:32:42;;;;;;;45.10;37.45;;;;;;;-3.17;100.00;101089.84;5081869;29;20035;-86
2022/12/16 02:35:38;;;;;;;41.45;37.60;;;;;;;-3.06;100.00;101098.31;5123104;29;20030;-85
2022/12/16 02:38:23;;;;;;;46.00;41.72;;;;;;;-3.30;100.00;101068.38;5120853;29;20030;-85
2022/12/16 02:40:59;;;;;;;43.83;39.85;;;;;;;-3.01;100.00;101116.31;5106286;29;20051;-85
2022/12/16 02:43:50;;;;;;;48.35;42.80;;;;;;;-2.97;100.00;101120.31;5103884;29;20024;-85
2022/12/16 02:46:31;;;;;;;47.92;43.28;;;;;;;-3.06;100.00;101098.31;5102819;29;20028;-86
2022/12/16 02:49:29;;;;;;;50.33;45.90;;;;;;;-2.99;100.00;101105.59;5103611;29;20019;-86
2022/12/16 02:52:00;;;;;;;45.83;41.22;;;;;;;-2.93;100.00;101118.16;5105133;29;20052;-85
2022/12/16 02:54:31;;;;;;;45.30;41.20;;;;;;;-3.13;100.00;101091.19;5120051;29;20039;-85
2022/12/16 02:57:29;;;;;;;48.10;43.63;;;;;;;-2.98;100.00;101108.09;5120425;29;20027;-86
2022/12/16 03:00:12;;;;;;;45.55;40.75;;;;;;;-3.14;100.00;101079.78;5103535;29;20038;-86
2022/12/16 03:02:57;;;;;;;47.35;42.92;;;;;;;-2.87;100.00;101130.72;5120404;29;20052;-85
2022/12/16 03:05:48;;;;;;;47.35;43.35;;;;;;;-2.87;100.00;101120.13;5103748;29;20095;-86
2022/12/16 03:08:33;;;;;;;45.83;41.25;;;;;;;-3.06;100.00;101087.75;5119939;29;20066;-85
2022/12/16 03:11:07;;;;;;;47.38;43.00;;;;;;;-3.35;100.00;101049.53;5120921;29;20042;-83
2022/12/16 03:13:45;;;;;;;50.97;45.50;;;;;;;-2.85;100.00;101126.09;5120944;29;20027;-84
2022/12/16 03:16:19;;;;;;;49.80;45.13;;;;;;;-2.87;100.00;101131.53;5119876;29;20040;-85
2022/12/16 03:18:54;;;;;;;46.70;42.00;;;;;;;-2.88;100.00;101134.34;5102657;29;20026;-85
2022/12/16 03:21:31;;;;;;;50.78;45.58;;;;;;;-2.88;100.00;101137.81;5102755;29;20030;-84
2022/12/16 03:24:06;;;;;;;50.00;45.53;;;;;;;-2.96;100.00;101131.69;5103070;29;20031;-84
2022/12/16 03:26:52;;;;;;;51.85;47.28;;;;;;;-3.24;100.00;101088.88;5102189;29;20051;-84
2022/12/16 03:29:29;;;;;;;47.78;43.28;;;;;;;-2.84;100.00;101144.44;5102545;29;20031;-83
2022/12/16 03:32:05;;;;;;;44.88;40.75;;;;;;;-2.95;100.00;101136.81;5102360;29;20032;-85
2022/12/16 03:34:42;;;;;;;45.55;41.15;;;;;;;-3.02;100.00;101127.88;5119827;29;20028;-84
2022/12/16 03:37:13;;;;;;;48.33;43.88;;;;;;;-3.32;100.00;101070.34;5102894;29;20024;-85
2022/12/16 03:39:47;;;;;;;52.28;47.38;;;;;;;-2.80;100.00;101151.06;5103840;29;20483;-84
2022/12/16 03:42:18;;;;;;;48.92;44.05;;;;;;;-3.21;100.00;101105.22;5124181;29;20042;-83
2022/12/16 03:44:49;;;;;;;49.78;44.88;;;;;;;-3.20;100.00;101088.38;5108731;29;20051;-84
2022/12/16 03:47:20;;;;;;;51.03;45.50;;;;;;;-2.78;100.00;101167.56;5125924;29;20081;-86
2022/12/16 03:49:51;;;;;;;51.80;46.47;;;;;;;-2.78;100.00;101166.75;5106225;29;20019;-85
2022/12/16 03:52:21;;;;;;;47.45;43.03;;;;;;;-2.80;100.00;101172.19;5100641;29;20027;-84
2022/12/16 03:54:52;;;;;;;51.67;46.55;;;;;;;-2.83;100.00;101167.22;5101349;29;20031;-86
2022/12/16 03:57:22;;;;;;;42.67;38.45;;;;;;;-3.24;100.00;101126.66;5119093;29;20517;-84
2022/12/16 03:59:53;;;;;;;51.53;46.60;;;;;;;-2.83;100.00;101180.44;5118902;29;20047;-85
2022/12/16 04:02:23;;;;;;;49.10;44.08;;;;;;;-2.81;100.00;101186.38;5118618;29;20047;-85
2022/12/16 04:04:54;;;;;;;49.90;45.08;;;;;;;-3.36;100.00;101103.34;5118867;29;20188;-84
2022/12/16 04:07:24;;;;;;;49.00;43.92;;;;;;;-2.97;100.00;101159.94;5118357;29;20035;-84
2022/12/16 04:09:55;;;;;;;58.05;46.88;;;;;;;-2.99;100.00;101150.50;5102194;29;20050;-84
2022/12/16 04:29:30;;;;;;;53.58;48.38;;;;;;;-2.97;100.00;101137.97;5107584;29;20114;-86
2022/12/16 04:32:00;;;;;;;58.42;48.78;;;;;;;-2.93;100.00;101149.88;5122613;29;20028;-85
2022/12/16 04:34:31;;;;;;;53.60;48.05;;;;;;;-2.56;100.00;101205.78;5102044;29;20027;-85
